sensor_id;sensor_type;location;lat;lon;timestamp;pressure;altitude;pressure_sealevel;temperature;humidity
21781;BME280;52576;53.614;9.894;2023-04-19T00:00:50;102957.34;;;4.84;72.78
21781;BME280;52576;53.614;9.894;2023-04-19T00:02:53;102953.88;;;4.84;72.88
21781;BME280;52576;53.614;9.894;2023-04-19T00:04:57;102947.81;;;4.83;73.08
21781;BME280;52576;53.614;9.894;2023-04-19T00:07:01;102947.78;;;4.86;73.09
21781;BME280;52576;53.614;9.894;2023-04-19T00:09:04;102952.97;;;4.86;73.34
21781;BME280;52576;53.614;9.894;2023-04-19T00:11:08;102941.72;;;4.86;73.40
21781;BME280;52576;53.614;9.894;2023-04-19T00:13:11;102946.06;;;4.85;73.34
21781;BME280;52576;53.614;9.894;2023-04-19T00:15:16;102935.66;;;4.85;73.39
21781;BME280;52576;53.614;9.894;2023-04-19T00:17:20;102945.22;;;4.83;73.41
21781;BME280;52576;53.614;9.894;2023-04-19T00:19:23;102929.63;;;4.82;73.63
21781;BME280;52576;53.614;9.894;2023-04-19T00:21:27;102936.56;;;4.80;73.63
21781;BME280;52576;53.614;9.894;2023-04-19T00:23:31;102932.25;;;4.77;73.81
21781;BME280;52576;53.614;9.894;2023-04-19T00:25:34;102928.81;;;4.75;73.64
21781;BME280;52576;53.614;9.894;2023-04-19T00:27:37;102934.03;;;4.72;73.83
21781;BME280;52576;53.614;9.894;2023-04-19T00:29:41;102930.59;;;4.70;73.92
21781;BME280;52576;53.614;9.894;2023-04-19T00:31:45;102927.13;;;4.68;73.77
21781;BME280;52576;53.614;9.894;2023-04-19T00:33:49;102926.31;;;4.67;74.04
21781;BME280;52576;53.614;9.894;2023-04-19T00:35:52;102922.88;;;4.64;73.97
21781;BME280;52576;53.614;9.894;2023-04-19T00:37:56;102924.59;;;4.63;73.97
21781;BME280;52576;53.614;9.894;2023-04-19T00:39:59;102923.75;;;4.63;74.16
21781;BME280;52576;53.614;9.894;2023-04-19T00:42:03;102924.59;;;4.62;74.10
21781;BME280;52576;53.614;9.894;2023-04-19T00:44:06;102925.47;;;4.61;73.92
21781;BME280;52576;53.614;9.894;2023-04-19T00:46:10;102928.06;;;4.61;74.08
21781;BME280;52576;53.614;9.894;2023-04-19T00:48:15;102928.09;;;4.59;73.79
21781;BME280;52576;53.614;9.894;2023-04-19T00:50:20;102929.81;;;4.59;73.69
21781;BME280;52576;53.614;9.894;2023-04-19T00:52:24;102922.03;;;4.59;73.67
21781;BME280;52576;53.614;9.894;2023-04-19T00:54:28;102913.38;;;4.57;73.59
21781;BME280;52576;53.614;9.894;2023-04-19T00:56:33;102924.63;;;4.57;73.27
21781;BME280;52576;53.614;9.894;2023-04-19T00:58:37;102919.44;;;4.57;73.43
21781;BME280;52576;53.614;9.894;2023-04-19T01:00:40;102916.84;;;4.57;73.43
21781;BME280;52576;53.614;9.894;2023-04-19T01:02:44;102910.78;;;4.57;73.34
21781;BME280;52576;53.614;9.894;2023-04-19T01:04:50;102923.78;;;4.57;73.16
21781;BME280;52576;53.614;9.894;2023-04-19T01:06:53;102924.66;;;4.54;73.33
21781;BME280;52576;53.614;9.894;2023-04-19T01:08:58;102922.06;;;4.53;73.34
21781;BME280;52576;53.614;9.894;2023-04-19T01:11:01;102922.94;;;4.50;73.33
21781;BME280;52576;53.614;9.894;2023-04-19T01:13:05;102920.34;;;4.50;73.00
21781;BME280;52576;53.614;9.894;2023-04-19T01:15:11;102929.88;;;4.51;73.03
21781;BME280;52576;53.614;9.894;2023-04-19T01:17:15;102921.22;;;4.52;72.76
21781;BME280;52576;53.614;9.894;2023-04-19T01:19:19;102918.59;;;4.54;72.87
21781;BME280;52576;53.614;9.894;2023-04-19T01:21:23;102923.78;;;4.54;72.81
21781;BME280;52576;53.614;9.894;2023-04-19T01:23:28;102924.66;;;4.54;72.56
21781;BME280;52576;53.614;9.894;2023-04-19T01:25:32;102923.78;;;4.54;72.73
21781;BME280;52576;53.614;9.894;2023-04-19T01:27:35;102917.75;;;4.53;72.49
21781;BME280;52576;53.614;9.894;2023-04-19T01:29:39;102921.22;;;4.51;72.43
21781;BME280;52576;53.614;9.894;2023-04-19T01:31:42;102916.03;;;4.51;72.36
21781;BME280;52576;53.614;9.894;2023-04-19T01:33:50;102922.09;;;4.50;72.28
21781;BME280;52576;53.614;9.894;2023-04-19T01:35:53;102923.81;;;4.51;71.91
21781;BME280;52576;53.614;9.894;2023-04-19T01:37:57;102917.75;;;4.50;71.85
21781;BME280;52576;53.614;9.894;2023-04-19T01:40:02;102917.75;;;4.50;72.05
21781;BME280;52576;53.614;9.894;2023-04-19T01:42:06;102920.38;;;4.49;71.99
21781;BME280;52576;53.614;9.894;2023-04-19T01:44:11;102917.75;;;4.49;71.67
21781;BME280;52576;53.614;9.894;2023-04-19T01:46:14;102917.75;;;4.49;71.69
21781;BME280;52576;53.614;9.894;2023-04-19T01:48:18;102916.91;;;4.50;71.32
21781;BME280;52576;53.614;9.894;2023-04-19T01:50:21;102921.22;;;4.52;71.43
21781;BME280;52576;53.614;9.894;2023-04-19T01:52:25;102911.69;;;4.53;71.26
21781;BME280;52576;53.614;9.894;2023-04-19T01:54:28;102907.34;;;4.52;71.19
21781;BME280;52576;53.614;9.894;2023-04-19T01:56:34;102905.63;;;4.51;71.28
21781;BME280;52576;53.614;9.894;2023-04-19T01:58:37;102911.69;;;4.50;71.29
21781;BME280;52576;53.614;9.894;2023-04-19T02:00:40;102906.50;;;4.50;71.22
21781;BME280;52576;53.614;9.894;2023-04-19T02:02:44;102905.66;;;4.48;71.34
21781;BME280;52576;53.614;9.894;2023-04-19T02:04:49;102899.59;;;4.46;71.40
21781;BME280;52576;53.614;9.894;2023-04-19T02:06:52;102896.16;;;4.43;71.58
21781;BME280;52576;53.614;9.894;2023-04-19T02:08:56;102895.34;;;4.41;71.45
21781;BME280;52576;53.614;9.894;2023-04-19T02:10:59;102895.34;;;4.38;71.63
21781;BME280;52576;53.614;9.894;2023-04-19T02:13:04;102893.63;;;4.39;71.72
21781;BME280;52576;53.614;9.894;2023-04-19T02:15:08;102896.22;;;4.37;71.66
21781;BME280;52576;53.614;9.894;2023-04-19T02:17:12;102896.22;;;4.37;71.71
21781;BME280;52576;53.614;9.894;2023-04-19T02:19:15;102894.50;;;4.39;71.69
21781;BME280;52576;53.614;9.894;2023-04-19T02:21:19;102896.22;;;4.40;71.63
21781;BME280;52576;53.614;9.894;2023-04-19T02:23:22;102905.72;;;4.40;71.67
21781;BME280;52576;53.614;9.894;2023-04-19T02:25:26;102907.47;;;4.38;71.59
21781;BME280;52576;53.614;9.894;2023-04-19T02:27:29;102908.34;;;4.35;71.80
21781;BME280;52576;53.614;9.894;2023-04-19T02:29:34;102899.72;;;4.32;71.80
21781;BME280;52576;53.614;9.894;2023-04-19T02:31:38;102898.00;;;4.29;71.81
21781;BME280;52576;53.614;9.894;2023-04-19T02:33:43;102901.47;;;4.28;71.82
21781;BME280;52576;53.614;9.894;2023-04-19T02:35:47;102900.63;;;4.26;71.88
21781;BME280;52576;53.614;9.894;2023-04-19T02:37:51;102901.50;;;4.25;71.78
21781;BME280;52576;53.614;9.894;2023-04-19T02:39:54;102901.50;;;4.22;71.65
21781;BME280;52576;53.614;9.894;2023-04-19T02:41:57;102903.25;;;4.20;72.02
21781;BME280;52576;53.614;9.894;2023-04-19T02:44:02;102911.91;;;4.19;71.93
21781;BME280;52576;53.614;9.894;2023-04-19T02:46:06;102900.66;;;4.17;71.97
21781;BME280;52576;53.614;9.894;2023-04-19T02:48:10;102898.97;;;4.15;72.06
21781;BME280;52576;53.614;9.894;2023-04-19T02:50:15;102908.50;;;4.13;72.21
21781;BME280;52576;53.614;9.894;2023-04-19T02:52:24;102901.59;;;4.10;72.34
21781;BME280;52576;53.614;9.894;2023-04-19T02:54:28;102904.19;;;4.08;72.47
21781;BME280;52576;53.614;9.894;2023-04-19T02:56:31;102899.88;;;4.06;72.45
21781;BME280;52576;53.614;9.894;2023-04-19T02:58:36;102900.78;;;4.03;72.47
21781;BME280;52576;53.614;9.894;2023-04-19T03:00:41;102900.78;;;4.02;72.57
21781;BME280;52576;53.614;9.894;2023-04-19T03:02:50;102899.06;;;3.98;72.82
21781;BME280;52576;53.614;9.894;2023-04-19T03:04:53;102893.00;;;3.96;72.96
21781;BME280;52576;53.614;9.894;2023-04-19T03:06:57;102899.94;;;3.94;73.10
21781;BME280;52576;53.614;9.894;2023-04-19T03:09:01;102894.78;;;3.91;73.02
21781;BME280;52576;53.614;9.894;2023-04-19T03:11:05;102890.50;;;3.88;73.19
21781;BME280;52576;53.614;9.894;2023-04-19T03:13:08;102901.75;;;3.86;73.17
21781;BME280;52576;53.614;9.894;2023-04-19T03:15:12;102896.56;;;3.83;73.22
21781;BME280;52576;53.614;9.894;2023-04-19T03:17:15;102891.38;;;3.80;73.45
21781;BME280;52576;53.614;9.894;2023-04-19T03:19:21;102885.34;;;3.78;73.43
21781;BME280;52576;53.614;9.894;2023-04-19T03:21:25;102883.63;;;3.75;73.60
21781;BME280;52576;53.614;9.894;2023-04-19T03:23:30;102883.63;;;3.73;73.51
21781;BME280;52576;53.614;9.894;2023-04-19T03:25:35;102885.38;;;3.71;73.51
21781;BME280;52576;53.614;9.894;2023-04-19T03:28:02;102884.50;;;3.69;73.73
21781;BME280;52576;53.614;9.894;2023-04-19T03:30:23;102878.47;;;3.67;73.60
21781;BME280;52576;53.614;9.894;2023-04-19T03:32:28;102878.47;;;3.66;73.61
21781;BME280;52576;53.614;9.894;2023-04-19T03:34:33;102875.88;;;3.64;73.65
21781;BME280;52576;53.614;9.894;2023-04-19T03:36:37;102876.78;;;3.63;73.55
21781;BME280;52576;53.614;9.894;2023-04-19T03:38:40;102872.47;;;3.62;73.78
21781;BME280;52576;53.614;9.894;2023-04-19T03:40:50;102877.66;;;3.62;73.77
21781;BME280;52576;53.614;9.894;2023-04-19T03:42:54;102869.88;;;3.61;73.86
21781;BME280;52576;53.614;9.894;2023-04-19T03:45:05;102872.47;;;3.59;74.02
21781;BME280;52576;53.614;9.894;2023-04-19T03:47:13;102875.94;;;3.58;73.82
21781;BME280;52576;53.614;9.894;2023-04-19T03:49:20;102869.03;;;3.57;73.99
21781;BME280;52576;53.614;9.894;2023-04-19T03:51:30;102874.22;;;3.56;73.83
21781;BME280;52576;53.614;9.894;2023-04-19T03:53:35;102875.94;;;3.55;73.98
21781;BME280;52576;53.614;9.894;2023-04-19T03:55:38;102874.22;;;3.54;73.98
21781;BME280;52576;53.614;9.894;2023-04-19T03:57:42;102875.94;;;3.52;74.00
21781;BME280;52576;53.614;9.894;2023-04-19T03:59:52;102864.72;;;3.50;74.00
21781;BME280;52576;53.614;9.894;2023-04-19T04:01:57;102867.31;;;3.47;74.18
21781;BME280;52576;53.614;9.894;2023-04-19T04:04:00;102870.78;;;3.46;74.25
21781;BME280;52576;53.614;9.894;2023-04-19T04:06:06;102871.66;;;3.44;74.37
21781;BME280;52576;53.614;9.894;2023-04-19T04:08:11;102867.34;;;3.41;74.29
21781;BME280;52576;53.614;9.894;2023-04-19T04:10:16;102866.47;;;3.39;74.28
21781;BME280;52576;53.614;9.894;2023-04-19T04:12:20;102866.50;;;3.37;74.32
21781;BME280;52576;53.614;9.894;2023-04-19T04:14:26;102862.19;;;3.35;74.33
21781;BME280;52576;53.614;9.894;2023-04-19T04:16:29;102857.00;;;3.35;74.48
21781;BME280;52576;53.614;9.894;2023-04-19T04:18:33;102855.28;;;3.34;74.55
21781;BME280;52576;53.614;9.894;2023-04-19T04:20:40;102854.44;;;3.33;74.52
21781;BME280;52576;53.614;9.894;2023-04-19T04:22:46;102854.44;;;3.32;74.64
21781;BME280;52576;53.614;9.894;2023-04-19T04:24:53;102858.75;;;3.33;74.42
21781;BME280;52576;53.614;9.894;2023-04-19T04:27:07;102853.56;;;3.33;74.59
21781;BME280;52576;53.614;9.894;2023-04-19T04:29:13;102858.75;;;3.33;74.53
21781;BME280;52576;53.614;9.894;2023-04-19T04:31:18;102862.19;;;3.33;74.50
21781;BME280;52576;53.614;9.894;2023-04-19T04:33:23;102854.44;;;3.33;74.34
21781;BME280;52576;53.614;9.894;2023-04-19T04:35:27;102859.63;;;3.33;74.55
21781;BME280;52576;53.614;9.894;2023-04-19T04:37:40;102863.06;;;3.34;74.69
21781;BME280;52576;53.614;9.894;2023-04-19T04:39:43;102857.00;;;3.35;74.64
21781;BME280;52576;53.614;9.894;2023-04-19T04:41:48;102860.47;;;3.37;74.82
21781;BME280;52576;53.614;9.894;2023-04-19T04:43:53;102852.66;;;3.38;74.67
21781;BME280;52576;53.614;9.894;2023-04-19T04:46:13;102859.56;;;3.42;74.52
21781;BME280;52576;53.614;9.894;2023-04-19T04:48:17;102864.72;;;3.46;74.46
21781;BME280;52576;53.614;9.894;2023-04-19T04:50:20;102859.53;;;3.49;74.41
21781;BME280;52576;53.614;9.894;2023-04-19T04:52:24;102862.13;;;3.53;74.14
21781;BME280;52576;53.614;9.894;2023-04-19T04:54:35;102858.66;;;3.57;74.36
21781;BME280;52576;53.614;9.894;2023-04-19T04:56:43;102853.44;;;3.60;74.08
21781;BME280;52576;53.614;9.894;2023-04-19T04:58:48;102862.91;;;3.66;74.11
21781;BME280;52576;53.614;9.894;2023-04-19T05:01:00;102863.75;;;3.69;73.71
21781;BME280;52576;53.614;9.894;2023-04-19T05:03:07;102866.34;;;3.74;73.70
21781;BME280;52576;53.614;9.894;2023-04-19T05:05:19;102865.44;;;3.80;73.30
21781;BME280;52576;53.614;9.894;2023-04-19T05:07:23;102868.03;;;3.84;73.23
21781;BME280;52576;53.614;9.894;2023-04-19T05:09:26;102865.41;;;3.89;73.03
21781;BME280;52576;53.614;9.894;2023-04-19T05:11:31;102860.16;;;3.93;72.56
21781;BME280;52576;53.614;9.894;2023-04-19T05:13:34;102866.19;;;3.98;72.26
21781;BME280;52576;53.614;9.894;2023-04-19T05:15:39;102866.16;;;4.03;72.08
21781;BME280;52576;53.614;9.894;2023-04-19T05:17:43;102859.22;;;4.09;71.80
21781;BME280;52576;53.614;9.894;2023-04-19T05:19:47;102859.19;;;4.14;71.65
21781;BME280;52576;53.614;9.894;2023-04-19T05:21:51;102859.13;;;4.20;71.52
21781;BME280;52576;53.614;9.894;2023-04-19T05:23:54;102863.44;;;4.24;71.37
21781;BME280;52576;53.614;9.894;2023-04-19T05:25:58;102856.47;;;4.29;70.95
21781;BME280;52576;53.614;9.894;2023-04-19T05:28:02;102861.63;;;4.35;70.63
21781;BME280;52576;53.614;9.894;2023-04-19T05:30:15;102860.69;;;4.42;70.26
21781;BME280;52576;53.614;9.894;2023-04-19T05:32:20;102858.03;;;4.49;70.04
21781;BME280;52576;53.614;9.894;2023-04-19T05:34:28;102855.41;;;4.55;69.61
21781;BME280;52576;53.614;9.894;2023-04-19T05:36:33;102857.97;;;4.61;69.61
21781;BME280;52576;53.614;9.894;2023-04-19T05:38:37;102857.00;;;4.68;69.40
21781;BME280;52576;53.614;9.894;2023-04-19T05:40:40;102847.44;;;4.73;69.21
21781;BME280;52576;53.614;9.894;2023-04-19T05:42:44;102857.78;;;4.79;68.65
21781;BME280;52576;53.614;9.894;2023-04-19T05:44:47;102855.13;;;4.85;68.25
21781;BME280;52576;53.614;9.894;2023-04-19T05:46:51;102849.03;;;4.89;68.18
21781;BME280;52576;53.614;9.894;2023-04-19T05:49:16;102845.47;;;4.96;67.95
21781;BME280;52576;53.614;9.894;2023-04-19T05:51:48;102846.28;;;5.01;67.53
21781;BME280;52576;53.614;9.894;2023-04-19T05:54:08;102843.59;;;5.10;67.41
21781;BME280;52576;53.614;9.894;2023-04-19T05:56:15;102851.34;;;5.17;67.13
21781;BME280;52576;53.614;9.894;2023-04-19T05:58:18;102843.44;;;5.23;66.57
21781;BME280;52576;53.614;9.894;2023-04-19T06:00:21;102843.38;;;5.29;66.48
21781;BME280;52576;53.614;9.894;2023-04-19T06:02:33;102845.91;;;5.36;65.88
21781;BME280;52576;53.614;9.894;2023-04-19T06:04:38;102843.22;;;5.44;65.81
21781;BME280;52576;53.614;9.894;2023-04-19T06:06:42;102847.44;;;5.50;65.61
21781;BME280;52576;53.614;9.894;2023-04-19T06:08:49;102838.69;;;5.57;64.98
21781;BME280;52576;53.614;9.894;2023-04-19T06:10:55;102843.81;;;5.63;64.85
21781;BME280;52576;53.614;9.894;2023-04-19T06:13:09;102840.25;;;5.71;64.54
21781;BME280;52576;53.614;9.894;2023-04-19T06:15:12;102837.53;;;5.79;64.22
21781;BME280;52576;53.614;9.894;2023-04-19T06:17:16;102832.22;;;5.87;63.95
21781;BME280;52576;53.614;9.894;2023-04-19T06:19:24;102838.22;;;5.93;63.54
21781;BME280;52576;53.614;9.894;2023-04-19T06:21:30;102838.09;;;6.01;63.36
21781;BME280;52576;53.614;9.894;2023-04-19T06:23:34;102833.66;;;6.09;62.97
21781;BME280;52576;53.614;9.894;2023-04-19T06:25:37;102831.78;;;6.17;62.36
21781;BME280;52576;53.614;9.894;2023-04-19T06:27:40;102831.63;;;6.26;61.90
21781;BME280;52576;53.614;9.894;2023-04-19T06:29:44;102823.69;;;6.34;61.58
21781;BME280;52576;53.614;9.894;2023-04-19T06:31:47;102836.56;;;6.44;61.27
21781;BME280;52576;53.614;9.894;2023-04-19T06:33:51;102831.16;;;6.54;60.79
21781;BME280;52576;53.614;9.894;2023-04-19T06:35:54;102834.50;;;6.62;60.45
21781;BME280;52576;53.614;9.894;2023-04-19T06:37:59;102831.75;;;6.71;59.92
21781;BME280;52576;53.614;9.894;2023-04-19T06:40:03;102822.03;;;6.79;59.26
21781;BME280;52576;53.614;9.894;2023-04-19T06:42:08;102823.66;;;6.86;59.14
21781;BME280;52576;53.614;9.894;2023-04-19T06:44:12;102826.97;;;6.94;58.24
21781;BME280;52576;53.614;9.894;2023-04-19T06:46:15;102818.97;;;7.02;58.04
21781;BME280;52576;53.614;9.894;2023-04-19T06:48:19;102821.44;;;7.09;58.05
21781;BME280;52576;53.614;9.894;2023-04-19T06:50:22;102817.84;;;7.17;57.61
21781;BME280;52576;53.614;9.894;2023-04-19T06:52:27;102816.84;;;7.24;57.22
21781;BME280;52576;53.614;9.894;2023-04-19T06:54:32;102817.56;;;7.29;57.05
21781;BME280;52576;53.614;9.894;2023-04-19T06:56:39;102817.47;;;7.35;57.00
21781;BME280;52576;53.614;9.894;2023-04-19T06:58:46;102828.63;;;7.41;56.72
21781;BME280;52576;53.614;9.894;2023-04-19T07:00:49;102821.56;;;7.46;56.18
21781;BME280;52576;53.614;9.894;2023-04-19T07:02:53;102822.34;;;7.52;55.65
21781;BME280;52576;53.614;9.894;2023-04-19T07:04:56;102817.88;;;7.55;55.73
21781;BME280;52576;53.614;9.894;2023-04-19T07:06:59;102818.66;;;7.60;55.97
21781;BME280;52576;53.614;9.894;2023-04-19T07:09:04;102814.19;;;7.65;55.55
21781;BME280;52576;53.614;9.894;2023-04-19T07:11:09;102816.69;;;7.71;55.25
21781;BME280;52576;53.614;9.894;2023-04-19T07:13:13;102811.31;;;7.77;55.17
21781;BME280;52576;53.614;9.894;2023-04-19T07:15:16;102809.44;;;7.82;55.07
21781;BME280;52576;53.614;9.894;2023-04-19T07:17:19;102809.31;;;7.89;55.14
21781;BME280;52576;53.614;9.894;2023-04-19T07:19:23;102804.78;;;7.97;54.99
21781;BME280;52576;53.614;9.894;2023-04-19T07:21:27;102806.31;;;8.05;54.76
21781;BME280;52576;53.614;9.894;2023-04-19T07:23:34;102805.22;;;8.14;54.40
21781;BME280;52576;53.614;9.894;2023-04-19T07:25:37;102809.38;;;8.23;53.33
21781;BME280;52576;53.614;9.894;2023-04-19T07:27:42;102797.91;;;8.28;53.29
21781;BME280;52576;53.614;9.894;2023-04-19T07:29:45;102792.47;;;8.37;52.51
21781;BME280;52576;53.614;9.894;2023-04-19T07:31:49;102794.03;;;8.44;52.27
21781;BME280;52576;53.614;9.894;2023-04-19T07:33:53;102799.13;;;8.50;51.92
21781;BME280;52576;53.614;9.894;2023-04-19T07:35:56;102795.38;;;8.59;51.57
21781;BME280;52576;53.614;9.894;2023-04-19T07:38:00;102786.44;;;8.68;50.97
21781;BME280;52576;53.614;9.894;2023-04-19T07:40:05;102793.25;;;8.75;50.74
21781;BME280;52576;53.614;9.894;2023-04-19T07:42:08;102792.22;;;8.80;50.87
21781;BME280;52576;53.614;9.894;2023-04-19T07:44:13;102787.66;;;8.87;50.29
21781;BME280;52576;53.614;9.894;2023-04-19T07:46:17;102783.13;;;8.94;49.95
21781;BME280;52576;53.614;9.894;2023-04-19T07:48:20;102783.84;;;8.99;49.05
21781;BME280;52576;53.614;9.894;2023-04-19T07:50:24;102790.69;;;9.04;48.79
21781;BME280;52576;53.614;9.894;2023-04-19T07:52:28;102779.13;;;9.11;48.61
21781;BME280;52576;53.614;9.894;2023-04-19T07:54:31;102792.84;;;9.19;48.78
21781;BME280;52576;53.614;9.894;2023-04-19T07:56:34;102783.03;;;9.28;48.48
21781;BME280;52576;53.614;9.894;2023-04-19T07:58:38;102775.78;;;9.36;48.70
21781;BME280;52576;53.614;9.894;2023-04-19T08:00:44;102780.75;;;9.45;48.15
21781;BME280;52576;53.614;9.894;2023-04-19T08:02:48;102782.28;;;9.52;47.65
21781;BME280;52576;53.614;9.894;2023-04-19T08:04:52;102787.34;;;9.58;47.16
21781;BME280;52576;53.614;9.894;2023-04-19T08:06:55;102790.66;;;9.63;47.41
21781;BME280;52576;53.614;9.894;2023-04-19T08:08:59;102787.03;;;9.67;47.17
21781;BME280;52576;53.614;9.894;2023-04-19T08:11:03;102785.16;;;9.72;47.06
21781;BME280;52576;53.614;9.894;2023-04-19T08:13:07;102783.25;;;9.77;46.99
21781;BME280;52576;53.614;9.894;2023-04-19T08:15:10;102779.53;;;9.84;47.02
21781;BME280;52576;53.614;9.894;2023-04-19T08:17:35;102781.03;;;9.92;46.96
21781;BME280;52576;53.614;9.894;2023-04-19T08:19:43;102777.31;;;9.99;47.10
21781;BME280;52576;53.614;9.894;2023-04-19T08:21:46;102782.38;;;10.05;46.63
21781;BME280;52576;53.614;9.894;2023-04-19T08:23:50;102780.47;;;10.10;46.40
21781;BME280;52576;53.614;9.894;2023-04-19T08:25:55;102788.09;;;10.16;46.47
21781;BME280;52576;53.614;9.894;2023-04-19T08:27:58;102773.91;;;10.23;46.13
21781;BME280;52576;53.614;9.894;2023-04-19T08:30:02;102772.81;;;10.30;45.44
21781;BME280;52576;53.614;9.894;2023-04-19T08:32:06;102780.47;;;10.36;45.54
21781;BME280;52576;53.614;9.894;2023-04-19T08:34:11;102774.09;;;10.43;45.88
21781;BME280;52576;53.614;9.894;2023-04-19T08:36:14;102767.72;;;10.50;45.66
21781;BME280;52576;53.614;9.894;2023-04-19T08:38:26;102772.78;;;10.57;45.31
21781;BME280;52576;53.614;9.894;2023-04-19T08:40:30;102762.13;;;10.61;44.89
21781;BME280;52576;53.614;9.894;2023-04-19T08:42:33;102764.56;;;10.66;45.10
21781;BME280;52576;53.614;9.894;2023-04-19T08:44:38;102752.91;;;10.74;45.30
21781;BME280;52576;53.614;9.894;2023-04-19T08:47:02;102750.75;;;10.85;44.98
21781;BME280;52576;53.614;9.894;2023-04-19T08:49:06;102744.28;;;10.94;44.61
21781;BME280;52576;53.614;9.894;2023-04-19T08:51:12;102743.16;;;11.01;43.91
21781;BME280;52576;53.614;9.894;2023-04-19T08:53:16;102747.38;;;11.05;43.42
21781;BME280;52576;53.614;9.894;2023-04-19T08:55:27;102738.56;;;11.08;43.36
21781;BME280;52576;53.614;9.894;2023-04-19T08:57:31;102742.88;;;11.09;43.38
21781;BME280;52576;53.614;9.894;2023-04-19T08:59:35;102722.63;;;11.12;43.82
21781;BME280;52576;53.614;9.894;2023-04-19T09:01:38;102719.69;;;11.20;43.74
21781;BME280;52576;53.614;9.894;2023-04-19T09:03:45;102732.53;;;11.28;43.46
21781;BME280;52576;53.614;9.894;2023-04-19T09:06:04;102729.44;;;11.40;43.45
21781;BME280;52576;53.614;9.894;2023-04-19T09:08:23;102722.78;;;11.53;43.75
21781;BME280;52576;53.614;9.894;2023-04-19T09:10:27;102722.31;;;11.65;43.32
21781;BME280;52576;53.614;9.894;2023-04-19T09:12:30;102725.38;;;11.76;42.84
21781;BME280;52576;53.614;9.894;2023-04-19T09:14:43;102715.28;;;11.87;42.85
21781;BME280;52576;53.614;9.894;2023-04-19T09:17:11;102725.28;;;12.00;41.83
21781;BME280;52576;53.614;9.894;2023-04-19T09:19:16;102727.66;;;12.06;40.93
21781;BME280;52576;53.614;9.894;2023-04-19T09:21:27;102725.88;;;12.06;38.40
21781;BME280;52576;53.614;9.894;2023-04-19T09:23:32;102711.16;;;12.02;38.54
21781;BME280;52576;53.614;9.894;2023-04-19T09:25:36;102705.03;;;12.02;38.53
21781;BME280;52576;53.614;9.894;2023-04-19T09:28:08;102708.47;;;12.04;38.01
21781;BME280;52576;53.614;9.894;2023-04-19T09:30:12;102707.34;;;12.09;38.25
21781;BME280;52576;53.614;9.894;2023-04-19T09:32:44;102704.84;;;12.27;39.24
21781;BME280;52576;53.614;9.894;2023-04-19T09:34:53;102701.38;;;12.46;39.21
21781;BME280;52576;53.614;9.894;2023-04-19T09:36:57;102689.97;;;12.66;38.55
21781;BME280;52576;53.614;9.894;2023-04-19T09:39:27;102692.59;;;12.85;37.92
21781;BME280;52576;53.614;9.894;2023-04-19T09:41:31;102686.78;;;12.97;37.47
21781;BME280;52576;53.614;9.894;2023-04-19T09:43:35;102684.63;;;13.05;37.49
21781;BME280;52576;53.614;9.894;2023-04-19T09:45:59;102681.56;;;13.14;36.75
21781;BME280;52576;53.614;9.894;2023-04-19T09:48:04;102678.94;;;13.14;36.48
21781;BME280;52576;53.614;9.894;2023-04-19T09:50:10;102671.25;;;13.10;36.33
21781;BME280;52576;53.614;9.894;2023-04-19T09:52:24;102670.53;;;13.06;36.43
21781;BME280;52576;53.614;9.894;2023-04-19T09:54:29;102678.81;;;12.99;36.04
21781;BME280;52576;53.614;9.894;2023-04-19T09:56:34;102680.09;;;12.90;36.46
21781;BME280;52576;53.614;9.894;2023-04-19T09:58:38;102671.41;;;12.88;34.93
21781;BME280;52576;53.614;9.894;2023-04-19T10:00:55;102659.44;;;12.81;33.82
21781;BME280;52576;53.614;9.894;2023-04-19T10:03:15;102657.41;;;12.69;32.84
21781;BME280;52576;53.614;9.894;2023-04-19T10:05:19;102649.06;;;12.59;32.09
21781;BME280;52576;53.614;9.894;2023-04-19T10:07:24;102664.25;;;12.52;32.00
21781;BME280;52576;53.614;9.894;2023-04-19T10:09:34;102657.41;;;12.48;31.94
21781;BME280;52576;53.614;9.894;2023-04-19T10:11:53;102657.41;;;12.48;31.79
21781;BME280;52576;53.614;9.894;2023-04-19T10:14:15;102660.03;;;12.48;31.72
21781;BME280;52576;53.614;9.894;2023-04-19T10:16:19;102647.97;;;12.44;31.55
21781;BME280;52576;53.614;9.894;2023-04-19T10:18:23;102640.34;;;12.38;31.25
21781;BME280;52576;53.614;9.894;2023-04-19T10:20:32;102656.41;;;12.32;30.92
21781;BME280;52576;53.614;9.894;2023-04-19T10:22:38;102640.75;;;12.29;30.80
21781;BME280;52576;53.614;9.894;2023-04-19T10:25:06;102640.03;;;12.26;31.22
21781;BME280;52576;53.614;9.894;2023-04-19T10:27:11;102645.22;;;12.27;31.67
21781;BME280;52576;53.614;9.894;2023-04-19T10:29:14;102624.13;;;12.29;32.23
21781;BME280;52576;53.614;9.894;2023-04-19T10:31:19;102645.81;;;12.34;32.00
21781;BME280;52576;53.614;9.894;2023-04-19T10:33:25;102641.94;;;12.42;30.69
21781;BME280;52576;53.614;9.894;2023-04-19T10:35:34;102629.41;;;12.47;29.57
21781;BME280;52576;53.614;9.894;2023-04-19T10:37:39;102625.72;;;12.51;30.16
21781;BME280;52576;53.614;9.894;2023-04-19T10:39:44;102627.28;;;12.55;30.08
21781;BME280;52576;53.614;9.894;2023-04-19T10:41:56;102625.19;;;12.64;29.10
21781;BME280;52576;53.614;9.894;2023-04-19T10:44:10;102617.00;;;12.70;28.70
21781;BME280;52576;53.614;9.894;2023-04-19T10:46:15;102603.84;;;12.70;28.86
21781;BME280;52576;53.614;9.894;2023-04-19T10:48:39;102613.53;;;12.69;29.02
21781;BME280;52576;53.614;9.894;2023-04-19T10:50:57;102611.44;;;12.76;29.84
21781;BME280;52576;53.614;9.894;2023-04-19T10:53:50;102611.72;;;12.88;29.66
21781;BME280;52576;53.614;9.894;2023-04-19T10:55:54;102619.03;;;13.01;29.95
21781;BME280;52576;53.614;9.894;2023-04-19T10:58:02;102608.78;;;13.13;29.20
21781;BME280;52576;53.614;9.894;2023-04-19T11:00:19;102631.91;;;13.25;28.05
21781;BME280;52576;53.614;9.894;2023-04-19T11:02:27;102610.59;;;13.30;26.97
21781;BME280;52576;53.614;9.894;2023-04-19T11:04:57;102592.31;;;13.27;26.46
21781;BME280;52576;53.614;9.894;2023-04-19T11:07:03;102607.59;;;13.20;26.87